Biotrans — JWPN — position and weather

sailwx.info

Track history (hours):
 
Tides and Currents Weather Stations Pressure Air Temp Water Temp Dewpoint Dewpoint Depression Visibility Wind Speed Wind Dir Waves Ship Positions

Biotrans

Last reported at 2015-Apr-21 01:32 UTC. Time now 2015-Apr-21 08:20 UTC.
Position N 69°36' E 018°52'.

Length 55 m; draft 5.5 m.

Type: Cargo ship. MMSI: 259260000.

Date/timePositionNaut miles runAvg speedWind from/ knotsBaromVisibWave heightAir tempDewpointWater temp
2015-Apr-21 01:32N 69°36' E 018°52'110 4.1
2015-Apr-19 22:33N 70°26' E 023°39'  
2015-Apr-16 18:24N 70°26' E 023°38'103 6.3
2015-Apr-16 02:14N 69°43' E 019°04'6 9.1
2015-Apr-16 01:34N 69°38' E 018°56'147 5.8
2015-Apr-15 00:29N 67°47' E 014°31'9 9.5
2015-Apr-14 23:33N 67°39' E 014°31'10 9.5
2015-Apr-14 22:33N 67°29' E 014°29'10 9.8
2015-Apr-14 21:34N 67°20' E 014°21'10 9.9
2015-Apr-14 20:32N 67°12' E 014°06'49 9.4
2015-Apr-14 15:20N 66°30' E 012°58'8 9.9
2015-Apr-14 14:34N 66°23' E 012°58'69 9.4
2015-Apr-14 07:13N 65°18' E 011°59'6 9.9
2015-Apr-14 06:33N 65°12' E 011°53'11 9.6
2015-Apr-14 05:27N 65°02' E 011°43'8 9.2
2015-Apr-14 04:34N 64°57' E 011°29'10 9.8
2015-Apr-14 03:33N 64°50' E 011°12'74 4.2
2015-Apr-13 10:09N 63°50' E 009°36'73 6.8
2015-Apr-12 23:23N 64°50' E 011°11'7 8.3
2015-Apr-12 22:33N 64°55' E 011°22'9 8.7
2015-Apr-12 21:33N 65°01' E 011°36'10 8.5
2015-Apr-12 20:25N 65°09' E 011°50'6 0.2
2015-Apr-11 20:31N 65°15' E 011°56'14 6.9
2015-Apr-11 18:30N 65°02' E 011°44'0 0.0
2015-Apr-11 11:24N 65°01' E 011°44'2 0.9
2015-Apr-11 09:33N 65°03' E 011°43'1110.5
2015-Apr-11 08:30N 65°00' E 011°18'2 0.7
2015-Apr-11 05:09N 64°59' E 011°13'1 2.4
2015-Apr-11 04:33N 64°59' E 011°16'3 3.0
2015-Apr-11 03:34N 64°59' E 011°23'5 5.0
2015-Apr-11 02:33N 64°54' E 011°20'3 3.0
2015-Apr-11 01:33N 64°52' E 011°15'  
Track history (hours):
 
Tides and Currents Weather Stations Pressure Air Temp Water Temp Dewpoint Dewpoint Depression Visibility Wind Speed Wind Dir Waves Ship Positions

Biotrans

Last reported at 2015-Apr-21 01:32 UTC. Time now 2015-Apr-21 08:20 UTC.
Position N 69°36' E 018°52'.

Length 55 m; draft 5.5 m.

Type: Cargo ship. MMSI: 259260000.

Date/timePositionNaut miles runAvg speedWind from/ knotsBaromVisibWave heightAir tempDewpointWater temp
2015-Apr-21 01:32N 69°36' E 018°52'110 4.1
2015-Apr-19 22:33N 70°26' E 023°39'  
2015-Apr-16 18:24N 70°26' E 023°38'103 6.3
2015-Apr-16 02:14N 69°43' E 019°04'6 9.1
2015-Apr-16 01:34N 69°38' E 018°56'147 5.8
2015-Apr-15 00:29N 67°47' E 014°31'9 9.5
2015-Apr-14 23:33N 67°39' E 014°31'10 9.5
2015-Apr-14 22:33N 67°29' E 014°29'10 9.8
2015-Apr-14 21:34N 67°20' E 014°21'10 9.9
2015-Apr-14 20:32N 67°12' E 014°06'49 9.4
2015-Apr-14 15:20N 66°30' E 012°58'8 9.9
2015-Apr-14 14:34N 66°23' E 012°58'69 9.4
2015-Apr-14 07:13N 65°18' E 011°59'6 9.9
2015-Apr-14 06:33N 65°12' E 011°53'11 9.6
2015-Apr-14 05:27N 65°02' E 011°43'8 9.2
2015-Apr-14 04:34N 64°57' E 011°29'10 9.8
2015-Apr-14 03:33N 64°50' E 011°12'74 4.2
2015-Apr-13 10:09N 63°50' E 009°36'73 6.8
2015-Apr-12 23:23N 64°50' E 011°11'7 8.3
2015-Apr-12 22:33N 64°55' E 011°22'9 8.7
2015-Apr-12 21:33N 65°01' E 011°36'10 8.5
2015-Apr-12 20:25N 65°09' E 011°50'6 0.2
2015-Apr-11 20:31N 65°15' E 011°56'14 6.9
2015-Apr-11 18:30N 65°02' E 011°44'0 0.0
2015-Apr-11 11:24N 65°01' E 011°44'2 0.9
2015-Apr-11 09:33N 65°03' E 011°43'1110.5
2015-Apr-11 08:30N 65°00' E 011°18'2 0.7
2015-Apr-11 05:09N 64°59' E 011°13'1 2.4
2015-Apr-11 04:33N 64°59' E 011°16'3 3.0
2015-Apr-11 03:34N 64°59' E 011°23'5 5.0
2015-Apr-11 02:33N 64°54' E 011°20'3 3.0
2015-Apr-11 01:33N 64°52' E 011°15'  

Dump ship's entire track history